logo
Search for airport 
image banner adimage banner adimage banner ad
image banner ad

RCH16 - Far Eastern Memorial Hospital

Located in New Taipei, Taiwan, Province of China

ICAO - , IATA -

Data provided by Airmate  

General information

Coordinates: N24°59'50" E121°27'12"
Elevation is 277 feet MSL.
Magnetic variation is -5° East
View others Airports in Taipei (municipality)

Operational data

Special qualification required
Current time UTC:
Current local time:
Weather at : RCSS - Taipei/Songshan ( 13 km )
METAR: RCSS 242100Z VRB01KT 9999 FEW018 SCT120 26/24 Q1010 NOSIG RMK A2984
TAF: TAF RCSS 241700Z 2418/2518 09005KT 9999 FEW015 BKN032 TEMPO 2418/2424 28005KT TEMPO 2503/2506 33012KT 2500 TSRA FEW006 FEW010CB BKN012 TEMPO 2507/2510 VRB05KT 3500 SHRA FEW010 FEW012CB BKN015
View NOTAMs / SUP AIP / TFR affecting this airport [VIEW]
Communications frequencies: [VIEW]

Runways:

Airport contact information

Address: New Taipei Taiwan, Province of China

Satellite view of RCH16